sensor_id;sensor_type;location;lat;lon;timestamp;temperature;humidity
74901;DHT22;63461;51.416;6.758;2023-02-28T00:00:30;2.70;99.90
74901;DHT22;63461;51.416;6.758;2023-02-28T00:02:57;2.70;99.90
74901;DHT22;63461;51.416;6.758;2023-02-28T00:05:24;2.60;99.90
74901;DHT22;63461;51.416;6.758;2023-02-28T00:07:50;2.60;99.90
74901;DHT22;63461;51.416;6.758;2023-02-28T00:10:18;2.60;99.90
74901;DHT22;63461;51.416;6.758;2023-02-28T00:12:50;2.50;99.90
74901;DHT22;63461;51.416;6.758;2023-02-28T00:15:16;2.60;99.90
74901;DHT22;63461;51.416;6.758;2023-02-28T00:17:42;2.50;99.90
74901;DHT22;63461;51.416;6.758;2023-02-28T00:20:10;2.50;99.90
74901;DHT22;63461;51.416;6.758;2023-02-28T00:22:39;2.50;99.90
74901;DHT22;63461;51.416;6.758;2023-02-28T00:25:06;2.50;99.90
74901;DHT22;63461;51.416;6.758;2023-02-28T00:27:33;2.50;99.90
74901;DHT22;63461;51.416;6.758;2023-02-28T00:29:59;2.50;99.90
74901;DHT22;63461;51.416;6.758;2023-02-28T00:32:25;2.50;99.90
74901;DHT22;63461;51.416;6.758;2023-02-28T00:34:51;2.50;99.90
74901;DHT22;63461;51.416;6.758;2023-02-28T00:37:16;2.40;99.90
74901;DHT22;63461;51.416;6.758;2023-02-28T00:39:42;2.40;99.90
74901;DHT22;63461;51.416;6.758;2023-02-28T00:42:08;2.40;99.90
74901;DHT22;63461;51.416;6.758;2023-02-28T00:44:34;2.40;99.90
74901;DHT22;63461;51.416;6.758;2023-02-28T00:47:00;2.40;99.90
74901;DHT22;63461;51.416;6.758;2023-02-28T00:49:27;2.40;99.90
74901;DHT22;63461;51.416;6.758;2023-02-28T00:51:54;2.40;99.90
74901;DHT22;63461;51.416;6.758;2023-02-28T00:54:21;2.40;99.90
74901;DHT22;63461;51.416;6.758;2023-02-28T00:56:47;2.40;99.90
74901;DHT22;63461;51.416;6.758;2023-02-28T00:59:14;2.40;99.90
74901;DHT22;63461;51.416;6.758;2023-02-28T01:01:41;2.40;99.90
74901;DHT22;63461;51.416;6.758;2023-02-28T01:04:07;2.40;99.90
74901;DHT22;63461;51.416;6.758;2023-02-28T01:06:32;2.40;99.90
74901;DHT22;63461;51.416;6.758;2023-02-28T01:08:59;2.30;99.90
74901;DHT22;63461;51.416;6.758;2023-02-28T01:11:25;2.30;99.90
74901;DHT22;63461;51.416;6.758;2023-02-28T01:13:52;2.40;99.90
74901;DHT22;63461;51.416;6.758;2023-02-28T01:16:18;2.40;99.90
74901;DHT22;63461;51.416;6.758;2023-02-28T01:18:44;2.30;99.90
74901;DHT22;63461;51.416;6.758;2023-02-28T01:21:16;2.30;99.90
74901;DHT22;63461;51.416;6.758;2023-02-28T01:23:44;2.30;99.90
74901;DHT22;63461;51.416;6.758;2023-02-28T01:26:15;2.20;99.90
74901;DHT22;63461;51.416;6.758;2023-02-28T01:28:41;2.20;99.90
74901;DHT22;63461;51.416;6.758;2023-02-28T01:31:08;2.20;99.90
74901;DHT22;63461;51.416;6.758;2023-02-28T01:33:37;2.20;99.90
74901;DHT22;63461;51.416;6.758;2023-02-28T01:36:17;2.20;99.90
74901;DHT22;63461;51.416;6.758;2023-02-28T01:38:44;2.20;99.90
74901;DHT22;63461;51.416;6.758;2023-02-28T01:41:18;2.20;99.90
74901;DHT22;63461;51.416;6.758;2023-02-28T01:46:12;2.20;99.90
74901;DHT22;63461;51.416;6.758;2023-02-28T01:48:41;2.10;99.90
74901;DHT22;63461;51.416;6.758;2023-02-28T01:51:44;2.10;99.90
74901;DHT22;63461;51.416;6.758;2023-02-28T01:54:16;2.10;99.90
74901;DHT22;63461;51.416;6.758;2023-02-28T01:57:06;2.10;99.90
74901;DHT22;63461;51.416;6.758;2023-02-28T01:59:57;2.10;99.90
74901;DHT22;63461;51.416;6.758;2023-02-28T02:02:24;2.10;99.90
74901;DHT22;63461;51.416;6.758;2023-02-28T02:04:53;2.00;99.90
74901;DHT22;63461;51.416;6.758;2023-02-28T02:07:20;2.00;99.90
74901;DHT22;63461;51.416;6.758;2023-02-28T02:09:46;2.00;99.90
74901;DHT22;63461;51.416;6.758;2023-02-28T02:12:37;2.10;99.90
74901;DHT22;63461;51.416;6.758;2023-02-28T02:15:24;2.00;99.90
74901;DHT22;63461;51.416;6.758;2023-02-28T02:17:56;2.00;99.90
74901;DHT22;63461;51.416;6.758;2023-02-28T02:20:44;2.00;99.90
74901;DHT22;63461;51.416;6.758;2023-02-28T02:37:29;1.90;99.90
74901;DHT22;63461;51.416;6.758;2023-02-28T02:40:11;1.90;99.90
74901;DHT22;63461;51.416;6.758;2023-02-28T02:48:07;1.90;99.90
74901;DHT22;63461;51.416;6.758;2023-02-28T02:50:54;1.80;99.90
74901;DHT22;63461;51.416;6.758;2023-02-28T02:53:27;1.80;99.90
74901;DHT22;63461;51.416;6.758;2023-02-28T02:55:56;1.80;99.90
74901;DHT22;63461;51.416;6.758;2023-02-28T02:58:27;1.80;99.90
74901;DHT22;63461;51.416;6.758;2023-02-28T03:00:58;1.80;99.90
74901;DHT22;63461;51.416;6.758;2023-02-28T03:03:26;1.80;99.90
74901;DHT22;63461;51.416;6.758;2023-02-28T03:06:00;1.70;99.90
74901;DHT22;63461;51.416;6.758;2023-02-28T03:08:27;1.80;99.90
74901;DHT22;63461;51.416;6.758;2023-02-28T03:11:01;1.70;99.90
74901;DHT22;63461;51.416;6.758;2023-02-28T03:24:43;1.60;99.90
74901;DHT22;63461;51.416;6.758;2023-02-28T03:27:29;1.60;99.90
74901;DHT22;63461;51.416;6.758;2023-02-28T03:30:06;1.60;99.90
74901;DHT22;63461;51.416;6.758;2023-02-28T03:32:59;1.60;99.90
74901;DHT22;63461;51.416;6.758;2023-02-28T03:35:26;1.60;99.90
74901;DHT22;63461;51.416;6.758;2023-02-28T03:38:18;1.60;99.90
74901;DHT22;63461;51.416;6.758;2023-02-28T03:40:54;1.60;99.90
74901;DHT22;63461;51.416;6.758;2023-02-28T03:43:26;1.60;99.90
74901;DHT22;63461;51.416;6.758;2023-02-28T03:45:54;1.60;99.90
74901;DHT22;63461;51.416;6.758;2023-02-28T03:48:35;1.60;99.90
74901;DHT22;63461;51.416;6.758;2023-02-28T03:51:03;1.60;99.90
74901;DHT22;63461;51.416;6.758;2023-02-28T03:53:57;1.60;99.90
74901;DHT22;63461;51.416;6.758;2023-02-28T03:56:53;1.60;99.90
74901;DHT22;63461;51.416;6.758;2023-02-28T03:59:27;1.40;99.90
74901;DHT22;63461;51.416;6.758;2023-02-28T04:01:54;1.50;99.90
74901;DHT22;63461;51.416;6.758;2023-02-28T04:04:21;1.50;99.90
74901;DHT22;63461;51.416;6.758;2023-02-28T04:06:50;1.50;99.90
74901;DHT22;63461;51.416;6.758;2023-02-28T04:09:16;1.40;99.90
74901;DHT22;63461;51.416;6.758;2023-02-28T04:11:49;1.50;99.90
74901;DHT22;63461;51.416;6.758;2023-02-28T04:14:16;1.40;99.90
74901;DHT22;63461;51.416;6.758;2023-02-28T04:16:43;1.40;99.90
74901;DHT22;63461;51.416;6.758;2023-02-28T04:19:11;1.40;99.90
74901;DHT22;63461;51.416;6.758;2023-02-28T04:21:39;1.40;99.90
74901;DHT22;63461;51.416;6.758;2023-02-28T04:24:10;1.50;99.90
74901;DHT22;63461;51.416;6.758;2023-02-28T04:26:41;1.40;99.90
74901;DHT22;63461;51.416;6.758;2023-02-28T04:29:10;1.40;99.90
74901;DHT22;63461;51.416;6.758;2023-02-28T04:31:36;1.40;99.90
74901;DHT22;63461;51.416;6.758;2023-02-28T04:34:02;1.40;99.90
74901;DHT22;63461;51.416;6.758;2023-02-28T04:36:28;1.40;99.90
74901;DHT22;63461;51.416;6.758;2023-02-28T04:38:54;1.40;99.90
74901;DHT22;63461;51.416;6.758;2023-02-28T04:41:20;1.40;99.90
74901;DHT22;63461;51.416;6.758;2023-02-28T04:43:47;1.40;99.90
74901;DHT22;63461;51.416;6.758;2023-02-28T04:46:12;1.30;99.90
74901;DHT22;63461;51.416;6.758;2023-02-28T04:48:39;1.30;99.90
74901;DHT22;63461;51.416;6.758;2023-02-28T04:51:11;1.40;99.90
74901;DHT22;63461;51.416;6.758;2023-02-28T04:53:39;1.40;99.90
74901;DHT22;63461;51.416;6.758;2023-02-28T04:56:05;1.40;99.90
74901;DHT22;63461;51.416;6.758;2023-02-28T04:58:31;1.40;99.90
74901;DHT22;63461;51.416;6.758;2023-02-28T05:01:06;1.30;99.90
74901;DHT22;63461;51.416;6.758;2023-02-28T05:03:41;1.30;99.90
74901;DHT22;63461;51.416;6.758;2023-02-28T05:06:08;1.30;99.90
74901;DHT22;63461;51.416;6.758;2023-02-28T05:08:34;1.30;99.90
74901;DHT22;63461;51.416;6.758;2023-02-28T05:11:00;1.30;99.90
74901;DHT22;63461;51.416;6.758;2023-02-28T05:13:27;1.20;99.90
74901;DHT22;63461;51.416;6.758;2023-02-28T05:15:53;1.30;99.90
74901;DHT22;63461;51.416;6.758;2023-02-28T05:18:19;1.20;99.90
74901;DHT22;63461;51.416;6.758;2023-02-28T05:20:45;1.20;99.90
74901;DHT22;63461;51.416;6.758;2023-02-28T05:23:12;1.20;99.90
74901;DHT22;63461;51.416;6.758;2023-02-28T05:25:38;1.20;99.90
74901;DHT22;63461;51.416;6.758;2023-02-28T05:28:05;1.20;99.90
74901;DHT22;63461;51.416;6.758;2023-02-28T05:30:31;1.10;99.90
74901;DHT22;63461;51.416;6.758;2023-02-28T05:32:57;1.10;99.90
74901;DHT22;63461;51.416;6.758;2023-02-28T05:35:24;1.20;99.90
74901;DHT22;63461;51.416;6.758;2023-02-28T05:37:50;1.20;99.90
74901;DHT22;63461;51.416;6.758;2023-02-28T05:40:16;1.10;99.90
74901;DHT22;63461;51.416;6.758;2023-02-28T05:42:42;1.10;99.90
74901;DHT22;63461;51.416;6.758;2023-02-28T05:45:09;1.10;99.90
74901;DHT22;63461;51.416;6.758;2023-02-28T05:47:35;1.10;99.90
74901;DHT22;63461;51.416;6.758;2023-02-28T05:50:01;1.10;99.90
74901;DHT22;63461;51.416;6.758;2023-02-28T05:52:28;1.10;99.90
74901;DHT22;63461;51.416;6.758;2023-02-28T05:54:55;1.10;99.90
74901;DHT22;63461;51.416;6.758;2023-02-28T05:57:21;1.10;99.90
74901;DHT22;63461;51.416;6.758;2023-02-28T05:59:47;1.10;99.90
74901;DHT22;63461;51.416;6.758;2023-02-28T06:02:15;1.10;99.90
74901;DHT22;63461;51.416;6.758;2023-02-28T06:04:42;1.00;99.90
74901;DHT22;63461;51.416;6.758;2023-02-28T06:07:08;1.00;99.90
74901;DHT22;63461;51.416;6.758;2023-02-28T06:09:34;1.00;99.90
74901;DHT22;63461;51.416;6.758;2023-02-28T06:12:01;1.00;99.90
74901;DHT22;63461;51.416;6.758;2023-02-28T06:14:29;1.00;99.90
74901;DHT22;63461;51.416;6.758;2023-02-28T06:16:57;1.00;99.90
74901;DHT22;63461;51.416;6.758;2023-02-28T06:19:22;1.00;99.90
74901;DHT22;63461;51.416;6.758;2023-02-28T06:21:52;1.00;99.90
74901;DHT22;63461;51.416;6.758;2023-02-28T06:24:23;1.00;99.90
74901;DHT22;63461;51.416;6.758;2023-02-28T06:26:49;0.90;99.90
74901;DHT22;63461;51.416;6.758;2023-02-28T06:29:15;1.00;99.90
74901;DHT22;63461;51.416;6.758;2023-02-28T06:31:43;1.00;99.90
74901;DHT22;63461;51.416;6.758;2023-02-28T06:34:10;0.90;99.90
74901;DHT22;63461;51.416;6.758;2023-02-28T06:36:41;1.00;99.90
74901;DHT22;63461;51.416;6.758;2023-02-28T06:39:09;1.00;99.90
74901;DHT22;63461;51.416;6.758;2023-02-28T06:41:35;1.00;99.90
74901;DHT22;63461;51.416;6.758;2023-02-28T06:44:14;1.00;99.90
74901;DHT22;63461;51.416;6.758;2023-02-28T06:46:41;1.00;99.90
74901;DHT22;63461;51.416;6.758;2023-02-28T06:49:08;1.00;99.90
74901;DHT22;63461;51.416;6.758;2023-02-28T06:51:35;1.00;99.90
74901;DHT22;63461;51.416;6.758;2023-02-28T06:54:01;1.00;99.90
74901;DHT22;63461;51.416;6.758;2023-02-28T06:56:27;1.00;99.90
74901;DHT22;63461;51.416;6.758;2023-02-28T06:58:53;1.10;99.90
74901;DHT22;63461;51.416;6.758;2023-02-28T07:01:19;1.10;99.90
74901;DHT22;63461;51.416;6.758;2023-02-28T07:03:46;1.00;99.90
74901;DHT22;63461;51.416;6.758;2023-02-28T07:06:12;1.00;99.90
74901;DHT22;63461;51.416;6.758;2023-02-28T07:08:38;1.10;99.90
74901;DHT22;63461;51.416;6.758;2023-02-28T07:11:05;1.10;99.90
74901;DHT22;63461;51.416;6.758;2023-02-28T07:13:31;1.10;99.90
74901;DHT22;63461;51.416;6.758;2023-02-28T07:15:59;1.10;99.90
74901;DHT22;63461;51.416;6.758;2023-02-28T07:18:25;1.10;99.90
74901;DHT22;63461;51.416;6.758;2023-02-28T07:20:51;1.10;99.90
74901;DHT22;63461;51.416;6.758;2023-02-28T07:23:17;1.20;99.90
74901;DHT22;63461;51.416;6.758;2023-02-28T07:25:43;1.20;99.90
74901;DHT22;63461;51.416;6.758;2023-02-28T07:28:11;1.20;99.90
74901;DHT22;63461;51.416;6.758;2023-02-28T07:30:37;1.20;99.90
74901;DHT22;63461;51.416;6.758;2023-02-28T07:33:03;1.20;99.90
74901;DHT22;63461;51.416;6.758;2023-02-28T07:35:29;1.30;99.90
74901;DHT22;63461;51.416;6.758;2023-02-28T07:37:57;1.30;99.90
74901;DHT22;63461;51.416;6.758;2023-02-28T07:40:24;1.30;99.90
74901;DHT22;63461;51.416;6.758;2023-02-28T07:42:50;1.40;99.90
74901;DHT22;63461;51.416;6.758;2023-02-28T07:45:16;1.40;99.90
74901;DHT22;63461;51.416;6.758;2023-02-28T07:47:43;1.40;99.90
74901;DHT22;63461;51.416;6.758;2023-02-28T07:50:12;1.50;99.90
74901;DHT22;63461;51.416;6.758;2023-02-28T07:52:38;1.40;99.90
74901;DHT22;63461;51.416;6.758;2023-02-28T07:55:06;1.40;99.90
74901;DHT22;63461;51.416;6.758;2023-02-28T07:57:32;1.50;99.90
74901;DHT22;63461;51.416;6.758;2023-02-28T07:59:58;1.50;99.90
74901;DHT22;63461;51.416;6.758;2023-02-28T08:02:24;1.60;99.90
74901;DHT22;63461;51.416;6.758;2023-02-28T08:04:50;1.60;99.90
74901;DHT22;63461;51.416;6.758;2023-02-28T08:07:16;1.70;99.90
74901;DHT22;63461;51.416;6.758;2023-02-28T08:09:43;1.70;99.90
74901;DHT22;63461;51.416;6.758;2023-02-28T08:12:10;1.70;99.90
74901;DHT22;63461;51.416;6.758;2023-02-28T08:14:37;1.70;99.90
74901;DHT22;63461;51.416;6.758;2023-02-28T08:17:04;1.80;99.90
74901;DHT22;63461;51.416;6.758;2023-02-28T08:19:30;1.80;99.90
74901;DHT22;63461;51.416;6.758;2023-02-28T08:21:56;1.80;99.90
74901;DHT22;63461;51.416;6.758;2023-02-28T08:24:22;1.80;99.90
74901;DHT22;63461;51.416;6.758;2023-02-28T08:26:49;1.90;99.90
74901;DHT22;63461;51.416;6.758;2023-02-28T08:29:15;2.00;99.90
74901;DHT22;63461;51.416;6.758;2023-02-28T08:31:41;2.00;99.90
74901;DHT22;63461;51.416;6.758;2023-02-28T08:34:11;2.00;99.90
74901;DHT22;63461;51.416;6.758;2023-02-28T08:36:38;2.00;99.90
74901;DHT22;63461;51.416;6.758;2023-02-28T08:39:04;2.10;99.90
74901;DHT22;63461;51.416;6.758;2023-02-28T08:41:31;2.10;99.90
74901;DHT22;63461;51.416;6.758;2023-02-28T08:43:57;2.10;99.90
74901;DHT22;63461;51.416;6.758;2023-02-28T08:46:23;2.10;99.90
74901;DHT22;63461;51.416;6.758;2023-02-28T08:48:52;2.20;99.90
74901;DHT22;63461;51.416;6.758;2023-02-28T08:51:19;2.20;99.90
74901;DHT22;63461;51.416;6.758;2023-02-28T08:53:52;2.30;99.90
74901;DHT22;63461;51.416;6.758;2023-02-28T08:56:18;2.30;99.90
74901;DHT22;63461;51.416;6.758;2023-02-28T08:58:45;2.30;99.90
74901;DHT22;63461;51.416;6.758;2023-02-28T09:01:18;2.40;98.40
74901;DHT22;63461;51.416;6.758;2023-02-28T09:03:45;2.40;98.10
74901;DHT22;63461;51.416;6.758;2023-02-28T09:06:12;2.40;97.50
74901;DHT22;63461;51.416;6.758;2023-02-28T09:08:38;2.40;96.90
74901;DHT22;63461;51.416;6.758;2023-02-28T09:11:04;2.50;96.90
74901;DHT22;63461;51.416;6.758;2023-02-28T09:13:31;2.50;96.50
74901;DHT22;63461;51.416;6.758;2023-02-28T09:15:59;2.60;97.00
74901;DHT22;63461;51.416;6.758;2023-02-28T09:18:25;2.60;96.10
74901;DHT22;63461;51.416;6.758;2023-02-28T09:20:52;2.60;95.80
74901;DHT22;63461;51.416;6.758;2023-02-28T09:23:18;2.60;95.30
74901;DHT22;63461;51.416;6.758;2023-02-28T09:25:53;2.70;94.70
74901;DHT22;63461;51.416;6.758;2023-02-28T09:28:20;2.80;93.90
74901;DHT22;63461;51.416;6.758;2023-02-28T09:30:49;2.80;93.60
74901;DHT22;63461;51.416;6.758;2023-02-28T09:33:16;2.80;93.00
74901;DHT22;63461;51.416;6.758;2023-02-28T09:35:42;2.80;92.40
74901;DHT22;63461;51.416;6.758;2023-02-28T09:38:09;2.80;92.40
74901;DHT22;63461;51.416;6.758;2023-02-28T09:40:48;2.90;91.90
74901;DHT22;63461;51.416;6.758;2023-02-28T09:43:16;2.90;92.10
74901;DHT22;63461;51.416;6.758;2023-02-28T09:45:56;3.00;92.70
74901;DHT22;63461;51.416;6.758;2023-02-28T09:48:35;3.00;91.70
74901;DHT22;63461;51.416;6.758;2023-02-28T09:51:15;3.00;91.70
74901;DHT22;63461;51.416;6.758;2023-02-28T09:53:46;3.00;92.00
74901;DHT22;63461;51.416;6.758;2023-02-28T09:56:19;3.10;91.50
74901;DHT22;63461;51.416;6.758;2023-02-28T09:58:55;3.10;91.50
74901;DHT22;63461;51.416;6.758;2023-02-28T10:04:38;3.20;91.00
74901;DHT22;63461;51.416;6.758;2023-02-28T10:07:19;3.20;91.30
74901;DHT22;63461;51.416;6.758;2023-02-28T10:09:52;3.30;90.90
74901;DHT22;63461;51.416;6.758;2023-02-28T10:12:20;3.30;91.10
74901;DHT22;63461;51.416;6.758;2023-02-28T10:14:48;3.40;91.00
74901;DHT22;63461;51.416;6.758;2023-02-28T10:17:21;3.40;90.80
74901;DHT22;63461;51.416;6.758;2023-02-28T10:24:43;3.60;90.00
74901;DHT22;63461;51.416;6.758;2023-02-28T10:27:19;3.60;90.20
74901;DHT22;63461;51.416;6.758;2023-02-28T10:29:50;3.70;89.70
74901;DHT22;63461;51.416;6.758;2023-02-28T10:32:18;3.70;89.50
74901;DHT22;63461;51.416;6.758;2023-02-28T10:34:49;3.80;88.90
74901;DHT22;63461;51.416;6.758;2023-02-28T10:37:16;3.90;87.40
74901;DHT22;63461;51.416;6.758;2023-02-28T10:39:45;4.00;89.60
74901;DHT22;63461;51.416;6.758;2023-02-28T10:42:26;4.10;87.90
74901;DHT22;63461;51.416;6.758;2023-02-28T10:45:15;4.20;84.90
74901;DHT22;63461;51.416;6.758;2023-02-28T10:48:00;4.10;85.20
74901;DHT22;63461;51.416;6.758;2023-02-28T11:01:20;4.50;83.80
74901;DHT22;63461;51.416;6.758;2023-02-28T11:03:46;4.50;84.00
74901;DHT22;63461;51.416;6.758;2023-02-28T11:06:29;4.60;83.80
74901;DHT22;63461;51.416;6.758;2023-02-28T11:11:30;4.90;83.20
74901;DHT22;63461;51.416;6.758;2023-02-28T11:14:04;5.00;82.80
74901;DHT22;63461;51.416;6.758;2023-02-28T11:16:36;4.90;82.20
74901;DHT22;63461;51.416;6.758;2023-02-28T11:19:04;4.80;83.50
74901;DHT22;63461;51.416;6.758;2023-02-28T11:21:34;4.80;83.50
74901;DHT22;63461;51.416;6.758;2023-02-28T11:24:25;4.80;83.90
74901;DHT22;63461;51.416;6.758;2023-02-28T11:26:52;4.70;83.70
74901;DHT22;63461;51.416;6.758;2023-02-28T11:32:12;4.60;82.30
74901;DHT22;63461;51.416;6.758;2023-02-28T11:34:39;4.60;80.70
74901;DHT22;63461;51.416;6.758;2023-02-28T11:37:13;4.70;80.00
74901;DHT22;63461;51.416;6.758;2023-02-28T11:39:40;4.70;79.70
74901;DHT22;63461;51.416;6.758;2023-02-28T11:45:13;4.70;78.70
74901;DHT22;63461;51.416;6.758;2023-02-28T11:47:47;4.80;79.70
74901;DHT22;63461;51.416;6.758;2023-02-28T11:50:21;4.90;79.00
74901;DHT22;63461;51.416;6.758;2023-02-28T11:52:56;4.80;78.80
74901;DHT22;63461;51.416;6.758;2023-02-28T11:58:26;4.80;79.40
74901;DHT22;63461;51.416;6.758;2023-02-28T12:01:02;4.80;79.20
74901;DHT22;63461;51.416;6.758;2023-02-28T12:03:49;4.80;79.10
74901;DHT22;63461;51.416;6.758;2023-02-28T12:06:30;4.80;79.00
74901;DHT22;63461;51.416;6.758;2023-02-28T12:09:04;4.80;80.00
74901;DHT22;63461;51.416;6.758;2023-02-28T12:17:22;5.00;80.00
74901;DHT22;63461;51.416;6.758;2023-02-28T12:20:17;5.00;79.80
74901;DHT22;63461;51.416;6.758;2023-02-28T12:28:15;5.10;79.30
74901;DHT22;63461;51.416;6.758;2023-02-28T12:30:52;5.10;80.50
74901;DHT22;63461;51.416;6.758;2023-02-28T12:33:21;5.10;80.10
74901;DHT22;63461;51.416;6.758;2023-02-28T12:35:59;5.00;80.00
74901;DHT22;63461;51.416;6.758;2023-02-28T12:41:22;5.00;80.20
74901;DHT22;63461;51.416;6.758;2023-02-28T12:44:00;5.00;80.50
74901;DHT22;63461;51.416;6.758;2023-02-28T12:46:35;5.00;81.00
74901;DHT22;63461;51.416;6.758;2023-02-28T12:49:08;5.00;80.50
74901;DHT22;63461;51.416;6.758;2023-02-28T12:51:35;5.00;80.40
74901;DHT22;63461;51.416;6.758;2023-02-28T12:56:43;5.10;80.60
74901;DHT22;63461;51.416;6.758;2023-02-28T13:10:04;5.10;79.50
74901;DHT22;63461;51.416;6.758;2023-02-28T13:12:30;5.10;80.10
74901;DHT22;63461;51.416;6.758;2023-02-28T13:15:16;5.10;79.70
74901;DHT22;63461;51.416;6.758;2023-02-28T13:17:49;5.10;79.80
74901;DHT22;63461;51.416;6.758;2023-02-28T13:20:21;5.10;79.50
74901;DHT22;63461;51.416;6.758;2023-02-28T13:22:49;5.10;79.80
74901;DHT22;63461;51.416;6.758;2023-02-28T13:27:48;5.10;80.10
74901;DHT22;63461;51.416;6.758;2023-02-28T13:33:35;5.20;80.60
74901;DHT22;63461;51.416;6.758;2023-02-28T13:38:41;5.30;81.00
74901;DHT22;63461;51.416;6.758;2023-02-28T13:46:30;5.30;81.20
74901;DHT22;63461;51.416;6.758;2023-02-28T13:48:55;5.40;80.50
74901;DHT22;63461;51.416;6.758;2023-02-28T13:51:42;5.40;80.00
74901;DHT22;63461;51.416;6.758;2023-02-28T14:05:42;5.40;82.40
74901;DHT22;63461;51.416;6.758;2023-02-28T14:08:20;5.40;82.40
74901;DHT22;63461;51.416;6.758;2023-02-28T14:10:49;5.40;82.70
74901;DHT22;63461;51.416;6.758;2023-02-28T14:13:38;5.40;82.90
74901;DHT22;63461;51.416;6.758;2023-02-28T14:16:13;5.30;82.80
74901;DHT22;63461;51.416;6.758;2023-02-28T14:18:50;5.40;83.40
74901;DHT22;63461;51.416;6.758;2023-02-28T14:21:28;5.40;83.70
74901;DHT22;63461;51.416;6.758;2023-02-28T14:32:51;5.40;83.30
74901;DHT22;63461;51.416;6.758;2023-02-28T14:37:54;5.40;83.80
74901;DHT22;63461;51.416;6.758;2023-02-28T14:40:29;5.40;83.50
74901;DHT22;63461;51.416;6.758;2023-02-28T14:43:00;5.40;83.60
74901;DHT22;63461;51.416;6.758;2023-02-28T14:45:29;5.40;83.50
74901;DHT22;63461;51.416;6.758;2023-02-28T14:47:56;5.40;83.90
74901;DHT22;63461;51.416;6.758;2023-02-28T14:50:26;5.40;83.60
74901;DHT22;63461;51.416;6.758;2023-02-28T14:52:53;5.40;83.40
74901;DHT22;63461;51.416;6.758;2023-02-28T14:55:31;5.40;83.80
74901;DHT22;63461;51.416;6.758;2023-02-28T14:58:05;5.40;84.30
74901;DHT22;63461;51.416;6.758;2023-02-28T15:00:47;5.50;84.70
74901;DHT22;63461;51.416;6.758;2023-02-28T15:03:36;5.40;85.00
74901;DHT22;63461;51.416;6.758;2023-02-28T15:06:14;5.50;85.10
74901;DHT22;63461;51.416;6.758;2023-02-28T15:08:41;5.50;84.90
74901;DHT22;63461;51.416;6.758;2023-02-28T15:11:11;5.40;85.10
74901;DHT22;63461;51.416;6.758;2023-02-28T15:13:45;5.40;84.40
74901;DHT22;63461;51.416;6.758;2023-02-28T15:16:34;5.40;84.60
74901;DHT22;63461;51.416;6.758;2023-02-28T15:19:05;5.40;84.80
74901;DHT22;63461;51.416;6.758;2023-02-28T15:21:39;5.40;84.40
74901;DHT22;63461;51.416;6.758;2023-02-28T15:24:13;5.40;84.40
74901;DHT22;63461;51.416;6.758;2023-02-28T15:26:45;5.30;83.60
74901;DHT22;63461;51.416;6.758;2023-02-28T15:29:15;5.30;84.20
74901;DHT22;63461;51.416;6.758;2023-02-28T15:31:49;5.30;84.60
74901;DHT22;63461;51.416;6.758;2023-02-28T15:34:20;5.40;84.50
74901;DHT22;63461;51.416;6.758;2023-02-28T15:36:47;5.30;85.40
74901;DHT22;63461;51.416;6.758;2023-02-28T15:39:25;5.30;85.80
74901;DHT22;63461;51.416;6.758;2023-02-28T15:42:20;5.30;86.00
74901;DHT22;63461;51.416;6.758;2023-02-28T15:44:46;5.30;85.90
74901;DHT22;63461;51.416;6.758;2023-02-28T15:47:19;5.30;86.10
74901;DHT22;63461;51.416;6.758;2023-02-28T15:50:00;5.30;86.30
74901;DHT22;63461;51.416;6.758;2023-02-28T15:52:42;5.30;85.80
74901;DHT22;63461;51.416;6.758;2023-02-28T15:55:12;5.30;85.80
74901;DHT22;63461;51.416;6.758;2023-02-28T15:57:43;5.30;86.50
74901;DHT22;63461;51.416;6.758;2023-02-28T16:00:14;5.20;86.50
74901;DHT22;63461;51.416;6.758;2023-02-28T16:02:40;5.30;86.60
74901;DHT22;63461;51.416;6.758;2023-02-28T16:07:43;5.20;85.80
74901;DHT22;63461;51.416;6.758;2023-02-28T16:10:11;5.20;85.20
74901;DHT22;63461;51.416;6.758;2023-02-28T16:12:38;5.20;85.30
74901;DHT22;63461;51.416;6.758;2023-02-28T16:15:23;5.10;85.60
74901;DHT22;63461;51.416;6.758;2023-02-28T16:17:50;5.20;85.80
74901;DHT22;63461;51.416;6.758;2023-02-28T16:20:30;5.10;87.00
74901;DHT22;63461;51.416;6.758;2023-02-28T16:22:56;5.10;86.70
74901;DHT22;63461;51.416;6.758;2023-02-28T16:25:34;5.10;87.10
74901;DHT22;63461;51.416;6.758;2023-02-28T16:28:00;5.10;87.50
74901;DHT22;63461;51.416;6.758;2023-02-28T16:30:28;5.00;87.70
74901;DHT22;63461;51.416;6.758;2023-02-28T16:32:57;5.00;88.10
74901;DHT22;63461;51.416;6.758;2023-02-28T16:35:23;5.00;88.60
74901;DHT22;63461;51.416;6.758;2023-02-28T16:37:51;5.00;89.10
74901;DHT22;63461;51.416;6.758;2023-02-28T16:40:19;5.00;89.30
74901;DHT22;63461;51.416;6.758;2023-02-28T16:42:50;5.00;89.90
74901;DHT22;63461;51.416;6.758;2023-02-28T16:45:24;5.00;90.00
74901;DHT22;63461;51.416;6.758;2023-02-28T16:47:50;4.90;90.20
74901;DHT22;63461;51.416;6.758;2023-02-28T16:50:29;4.90;90.30
74901;DHT22;63461;51.416;6.758;2023-02-28T16:52:55;4.90;90.20
74901;DHT22;63461;51.416;6.758;2023-02-28T16:55:25;4.90;89.80
74901;DHT22;63461;51.416;6.758;2023-02-28T16:57:53;4.80;89.90
74901;DHT22;63461;51.416;6.758;2023-02-28T17:00:20;4.80;89.40
74901;DHT22;63461;51.416;6.758;2023-02-28T17:02:46;4.80;89.10
74901;DHT22;63461;51.416;6.758;2023-02-28T17:05:12;4.80;89.20
74901;DHT22;63461;51.416;6.758;2023-02-28T17:07:39;4.80;89.50
74901;DHT22;63461;51.416;6.758;2023-02-28T17:10:17;4.70;89.80
74901;DHT22;63461;51.416;6.758;2023-02-28T17:12:43;4.70;90.00
74901;DHT22;63461;51.416;6.758;2023-02-28T17:15:11;4.70;90.00
74901;DHT22;63461;51.416;6.758;2023-02-28T17:17:37;4.60;90.30
74901;DHT22;63461;51.416;6.758;2023-02-28T17:20:09;4.60;90.40
74901;DHT22;63461;51.416;6.758;2023-02-28T17:22:36;4.60;90.70
74901;DHT22;63461;51.416;6.758;2023-02-28T17:25:05;4.60;90.30
74901;DHT22;63461;51.416;6.758;2023-02-28T17:27:34;4.60;90.20
74901;DHT22;63461;51.416;6.758;2023-02-28T17:30:00;4.60;90.30
74901;DHT22;63461;51.416;6.758;2023-02-28T17:32:31;4.50;90.40
74901;DHT22;63461;51.416;6.758;2023-02-28T17:34:57;4.60;90.80
74901;DHT22;63461;51.416;6.758;2023-02-28T17:37:23;4.60;90.70
74901;DHT22;63461;51.416;6.758;2023-02-28T17:39:49;4.60;90.70
74901;DHT22;63461;51.416;6.758;2023-02-28T17:42:14;4.50;90.70
74901;DHT22;63461;51.416;6.758;2023-02-28T17:44:40;4.50;90.80
74901;DHT22;63461;51.416;6.758;2023-02-28T17:47:06;4.50;90.90
74901;DHT22;63461;51.416;6.758;2023-02-28T17:49:32;4.50;90.80
74901;DHT22;63461;51.416;6.758;2023-02-28T17:51:58;4.50;90.90
74901;DHT22;63461;51.416;6.758;2023-02-28T17:54:24;4.50;90.90
74901;DHT22;63461;51.416;6.758;2023-02-28T17:56:50;4.50;91.10
74901;DHT22;63461;51.416;6.758;2023-02-28T17:59:16;4.50;91.10
74901;DHT22;63461;51.416;6.758;2023-02-28T18:01:42;4.40;91.20
74901;DHT22;63461;51.416;6.758;2023-02-28T18:04:07;4.40;91.30
74901;DHT22;63461;51.416;6.758;2023-02-28T18:06:39;4.30;91.30
74901;DHT22;63461;51.416;6.758;2023-02-28T18:09:16;4.40;91.50
74901;DHT22;63461;51.416;6.758;2023-02-28T18:11:43;4.30;91.50
74901;DHT22;63461;51.416;6.758;2023-02-28T18:14:14;4.30;91.60